createdAt,value
2022-10-09T00:01:12.149Z,10.20
2022-10-09T00:03:41.191Z,13.75
2022-10-09T00:06:10.461Z,10.27
2022-10-09T00:08:43.677Z,12.80
2022-10-09T00:11:13.497Z,11.38
2022-10-09T00:13:40.145Z,9.30
2022-10-09T00:16:10.325Z,9.88
2022-10-09T00:18:37.422Z,13.45
2022-10-09T00:21:05.165Z,13.25
2022-10-09T00:23:32.602Z,11.18
2022-10-09T00:26:01.617Z,10.23
2022-10-09T00:28:34.291Z,12.05
2022-10-09T00:31:10.519Z,11.95
2022-10-09T00:33:38.398Z,12.52
2022-10-09T00:36:07.236Z,11.27
2022-10-09T00:38:34.643Z,15.55
2022-10-09T00:41:01.613Z,13.48
2022-10-09T00:43:42.020Z,13.45
2022-10-09T00:46:21.128Z,12.80
2022-10-09T00:48:56.289Z,12.23
2022-10-09T00:51:23.327Z,12.02
2022-10-09T00:53:50.263Z,10.80
2022-10-09T00:56:16.919Z,10.82
2022-10-09T00:58:43.645Z,11.07
2022-10-09T01:01:10.293Z,12.98
2022-10-09T01:03:37.036Z,9.05
2022-10-09T01:06:31.008Z,11.23
2022-10-09T01:09:06.319Z,10.38
2022-10-09T01:11:45.553Z,11.35
2022-10-09T01:14:34.258Z,9.88
2022-10-09T01:17:25.615Z,7.78
2022-10-09T01:20:10.975Z,9.48
2022-10-09T01:23:02.007Z,9.05
2022-10-09T01:25:44.959Z,8.00
2022-10-09T01:28:14.993Z,8.57
2022-10-09T01:30:42.581Z,7.18
2022-10-09T01:33:11.071Z,10.63
2022-10-09T01:35:38.702Z,9.40
2022-10-09T01:38:05.649Z,11.40
2022-10-09T01:40:32.346Z,13.48
2022-10-09T01:42:59.582Z,9.02
2022-10-09T01:45:42.608Z,9.77
2022-10-09T01:48:16.607Z,10.55
2022-10-09T01:50:52.897Z,10.10
2022-10-09T01:53:21.080Z,12.50
2022-10-09T01:56:01.276Z,11.07
2022-10-09T01:58:36.338Z,9.25
2022-10-09T02:01:14.347Z,11.00
2022-10-09T02:03:45.183Z,10.02
2022-10-09T02:06:15.018Z,11.05
2022-10-09T02:08:43.907Z,10.20
2022-10-09T02:11:14.820Z,9.30
2022-10-09T02:13:42.373Z,9.05
2022-10-09T02:16:15.264Z,9.45
2022-10-09T02:18:49.372Z,14.50
2022-10-09T02:21:22.898Z,16.00
2022-10-09T02:23:51.054Z,13.00
2022-10-09T02:26:19.381Z,24.85
2022-10-09T07:14:29.428Z,88.60
2022-10-09T07:16:56.017Z,213.13
2022-10-09T07:19:22.683Z,198.70
2022-10-09T07:21:50.284Z,36.25
2022-10-09T07:24:18.190Z,32.25
2022-10-09T07:26:46.457Z,22.58
2022-10-09T07:29:15.103Z,31.48
2022-10-09T07:31:41.794Z,29.17
2022-10-09T07:34:08.530Z,23.10
2022-10-09T07:36:35.573Z,7.63
2022-10-09T07:39:03.358Z,67.90
2022-10-09T07:41:30.511Z,44.22
2022-10-09T07:43:57.771Z,30.35
2022-10-09T07:46:30.812Z,9.73
2022-10-09T07:48:59.101Z,12.93
2022-10-09T07:51:27.880Z,13.20
2022-10-09T07:53:54.727Z,44.30
2022-10-09T07:56:29.484Z,22.77
2022-10-09T07:59:02.120Z,49.15
2022-10-09T08:01:31.364Z,46.78
2022-10-09T08:03:59.005Z,57.97
2022-10-09T08:06:25.961Z,73.32
2022-10-09T08:08:54.744Z,20.20
2022-10-09T08:11:23.105Z,33.42
2022-10-09T08:13:50.711Z,31.65
2022-10-09T08:16:18.654Z,27.55
2022-10-09T08:18:46.101Z,30.63
2022-10-09T08:21:18.570Z,22.48
2022-10-09T08:23:45.823Z,45.83
2022-10-09T08:26:20.719Z,10.52
2022-10-09T08:28:52.797Z,9.77
2022-10-09T08:31:20.055Z,17.58
2022-10-09T08:33:47.157Z,8.10
2022-10-09T08:36:17.375Z,16.55
2022-10-09T08:38:48.227Z,44.85
2022-10-09T08:41:39.653Z,29.88
2022-10-09T08:44:32.116Z,9.18
2022-10-09T08:47:19.692Z,7.38
2022-10-09T08:50:06.062Z,7.63
2022-10-09T08:52:41.824Z,6.88
2022-10-09T08:55:17.491Z,7.80
2022-10-09T08:57:46.406Z,6.47
2022-10-09T09:00:17.527Z,7.78
2022-10-09T09:03:21.740Z,7.13
2022-10-09T09:05:48.276Z,7.07
2022-10-09T09:08:30.968Z,9.10
2022-10-09T09:11:21.472Z,9.85
2022-10-09T09:14:08.636Z,8.52
2022-10-09T09:16:58.190Z,6.68
2022-10-09T09:19:30.902Z,7.97
2022-10-09T09:21:59.011Z,7.63
2022-10-09T09:24:40.030Z,8.65
2022-10-09T09:27:13.527Z,15.25
2022-10-09T09:29:47.097Z,9.35
2022-10-09T09:32:20.487Z,8.57
2022-10-09T09:34:47.464Z,10.80
2022-10-09T09:37:14.686Z,10.55
2022-10-09T09:40:31.378Z,10.13
2022-10-09T09:42:28.741Z,8.82
2022-10-09T09:44:58.659Z,7.53
2022-10-09T09:47:34.760Z,10.27
2022-10-09T09:50:03.784Z,7.85
2022-10-09T09:52:36.235Z,7.78
2022-10-09T09:55:04.096Z,7.90
2022-10-09T09:57:42.560Z,12.18
2022-10-09T10:00:20.594Z,10.07
2022-10-09T10:02:47.923Z,7.30
2022-10-09T10:05:37.654Z,8.73
2022-10-09T10:08:36.653Z,7.90
2022-10-09T10:11:07.151Z,11.23
2022-10-09T10:13:35.806Z,7.32
2022-10-09T10:16:03.164Z,6.77
2022-10-09T10:18:36.616Z,8.43
2022-10-09T10:21:10.632Z,8.40
2022-10-09T10:23:39.842Z,6.20
2022-10-09T10:26:24.858Z,9.55
2022-10-09T10:29:03.250Z,5.25
2022-10-09T10:31:57.772Z,9.48
2022-10-09T10:34:31.372Z,7.78
2022-10-09T10:37:06.101Z,7.20
2022-10-09T10:39:50.427Z,8.35
2022-10-09T10:42:33.502Z,5.93
2022-10-09T10:45:13.148Z,5.03
2022-10-09T10:47:47.681Z,6.75
2022-10-09T10:50:15.848Z,6.53
2022-10-09T10:53:16.258Z,7.47
2022-10-09T10:56:06.108Z,13.50
2022-10-09T10:58:42.759Z,6.10
2022-10-09T11:01:12.372Z,7.55
2022-10-09T11:03:43.377Z,5.70
2022-10-09T11:06:23.194Z,7.53
2022-10-09T11:09:08.358Z,7.65
2022-10-09T11:11:44.727Z,6.32
2022-10-09T11:14:33.814Z,7.10
2022-10-09T11:17:26.974Z,5.40
2022-10-09T11:20:20.900Z,7.25
2022-10-09T11:23:06.384Z,5.00
2022-10-09T11:25:38.912Z,7.10
2022-10-09T11:28:10.775Z,3.28
2022-10-09T11:30:44.287Z,6.55
2022-10-09T11:33:35.574Z,8.02
2022-10-09T11:36:14.379Z,3.88
2022-10-09T11:38:51.552Z,5.25
2022-10-09T11:41:18.814Z,5.40
2022-10-09T11:44:32.683Z,7.45
2022-10-09T11:47:22.323Z,5.13
2022-10-09T11:50:18.453Z,4.63
2022-10-09T11:52:59.333Z,7.03
2022-10-09T11:55:29.010Z,3.45
2022-10-09T11:57:55.638Z,5.25
2022-10-09T12:00:33.772Z,6.60
2022-10-09T12:03:03.486Z,5.10
2022-10-09T12:05:35.348Z,7.47
2022-10-09T12:08:16.776Z,7.85
2022-10-09T12:11:19.523Z,4.60
2022-10-09T12:13:48.466Z,3.38
2022-10-09T12:16:43.325Z,3.85
2022-10-09T12:19:21.250Z,5.40
2022-10-09T12:22:29.074Z,4.63
2022-10-09T12:24:59.219Z,5.53
2022-10-09T12:27:31.199Z,4.32
2022-10-09T12:30:26.096Z,3.40
2022-10-09T12:32:58.831Z,5.55
2022-10-09T12:35:32.313Z,3.20
2022-10-09T12:37:59.000Z,3.03
2022-10-09T12:40:34.689Z,3.05
2022-10-09T12:43:07.610Z,3.78
2022-10-09T12:45:41.850Z,3.92
2022-10-09T12:48:12.213Z,3.72
2022-10-09T12:50:39.577Z,2.83
2022-10-09T12:53:20.842Z,2.97
2022-10-09T12:55:51.623Z,2.95
2022-10-09T12:58:33.171Z,3.53
2022-10-09T13:01:03.212Z,3.38
2022-10-09T13:03:40.818Z,3.45
2022-10-09T13:06:13.755Z,4.95
2022-10-09T13:08:40.942Z,2.83
2022-10-09T13:11:30.560Z,3.83
2022-10-09T13:13:57.544Z,5.90
2022-10-09T13:16:25.085Z,3.67
2022-10-09T13:18:59.863Z,5.18
2022-10-09T13:21:31.391Z,3.25
2022-10-09T13:24:08.346Z,2.60
2022-10-09T13:26:34.986Z,4.40
2022-10-09T13:29:03.742Z,8.27
2022-10-09T13:31:30.417Z,6.10
2022-10-09T13:33:57.026Z,2.53
2022-10-09T13:36:23.629Z,3.30
2022-10-09T13:38:50.661Z,3.15
2022-10-09T13:41:23.421Z,3.13
2022-10-09T13:43:53.359Z,5.22
2022-10-09T13:46:20.059Z,3.05
2022-10-09T13:48:46.607Z,4.18
2022-10-09T13:51:13.197Z,4.35
2022-10-09T13:53:39.784Z,2.35
2022-10-09T13:56:08.536Z,4.65
2022-10-09T13:58:35.363Z,2.33
2022-10-09T14:01:02.080Z,3.50
2022-10-09T14:03:28.765Z,2.53
2022-10-09T14:06:00.058Z,3.67
2022-10-09T14:08:26.705Z,3.20
2022-10-09T14:10:53.907Z,4.22
2022-10-09T14:13:21.488Z,3.70
2022-10-09T14:15:48.652Z,2.80
2022-10-09T14:18:15.156Z,4.82
2022-10-09T14:20:41.706Z,2.85
2022-10-09T14:23:09.309Z,3.88
2022-10-09T14:25:36.020Z,4.80
2022-10-09T14:28:03.200Z,3.15
2022-10-09T14:30:29.954Z,2.70
2022-10-09T14:32:56.659Z,2.47
2022-10-09T14:35:23.561Z,2.50
2022-10-09T14:37:50.151Z,3.53
2022-10-09T14:40:17.078Z,2.60
2022-10-09T14:42:43.675Z,2.83
2022-10-09T14:45:10.775Z,5.28
2022-10-09T14:47:37.550Z,3.70
2022-10-09T14:50:04.265Z,4.47
2022-10-09T14:52:30.827Z,2.38
2022-10-09T14:54:57.378Z,2.92
2022-10-09T14:57:23.969Z,4.32
2022-10-09T14:59:50.550Z,3.33
2022-10-09T15:02:17.690Z,4.35
2022-10-09T15:04:44.250Z,3.42
2022-10-09T15:07:10.854Z,6.22
2022-10-09T15:09:37.460Z,3.42
2022-10-09T15:12:04.205Z,4.60
2022-10-09T15:14:30.786Z,3.30
2022-10-09T15:16:57.496Z,3.35
2022-10-09T15:19:24.040Z,4.10
2022-10-09T15:21:50.631Z,3.92
2022-10-09T15:24:17.200Z,5.03
2022-10-09T15:26:43.750Z,3.25
2022-10-09T15:29:12.169Z,3.50
2022-10-09T15:31:40.626Z,2.17
2022-10-09T15:34:08.283Z,2.67
2022-10-09T15:36:37.444Z,2.72
2022-10-09T15:39:07.361Z,2.70
2022-10-09T15:41:36.178Z,3.25
2022-10-09T15:44:06.397Z,2.85
2022-10-09T15:46:33.169Z,1.85
2022-10-09T15:48:59.952Z,2.75
2022-10-09T15:51:26.678Z,3.58
2022-10-09T15:53:53.445Z,3.30
2022-10-09T15:56:22.827Z,3.70
2022-10-09T16:01:17.498Z,4.32
2022-10-09T16:03:44.341Z,3.20
2022-10-09T16:06:12.859Z,2.67
2022-10-09T16:08:40.439Z,2.63
2022-10-09T16:13:43.763Z,2.22
2022-10-09T16:16:13.705Z,2.25
2022-10-09T16:18:40.414Z,5.20
2022-10-09T16:21:14.147Z,4.57
2022-10-09T16:23:44.993Z,4.07
2022-10-09T16:26:14.547Z,11.07
2022-10-09T16:28:41.214Z,8.18
2022-10-09T16:31:07.816Z,5.97
2022-10-09T16:33:34.370Z,3.08
2022-10-09T16:36:12.297Z,8.50
2022-10-09T16:38:41.252Z,14.07
2022-10-09T16:41:09.685Z,4.75
2022-10-09T16:43:37.608Z,5.32
2022-10-09T16:46:10.428Z,4.15
2022-10-09T16:48:37.103Z,4.65
2022-10-09T16:51:08.720Z,3.53
2022-10-09T16:53:35.516Z,6.40
2022-10-09T16:56:13.793Z,3.53
2022-10-09T16:58:41.982Z,5.30
2022-10-09T17:01:10.291Z,6.13
2022-10-09T17:03:40.536Z,3.63
2022-10-09T17:06:12.910Z,4.38
2022-10-09T17:08:39.669Z,5.55
2022-10-09T17:11:11.666Z,6.18
2022-10-09T17:13:39.174Z,3.72
2022-10-09T17:16:17.150Z,6.25
2022-10-09T17:18:45.082Z,5.97
2022-10-09T17:21:15.984Z,6.10
2022-10-09T17:23:42.580Z,5.57
2022-10-09T17:26:14.238Z,7.40
2022-10-09T17:28:42.122Z,6.90
2022-10-09T17:31:12.241Z,7.88
2022-10-09T17:33:41.486Z,7.95
2022-10-09T17:36:09.303Z,8.93
2022-10-09T17:38:36.225Z,7.50
2022-10-09T17:41:11.591Z,9.30
2022-10-09T17:43:38.723Z,7.88
2022-10-09T17:46:06.426Z,11.15
2022-10-09T17:48:34.803Z,13.20
2022-10-09T17:51:06.200Z,16.35
2022-10-09T17:53:32.816Z,23.27
2022-10-09T17:56:03.484Z,27.02
2022-10-09T17:58:30.118Z,29.15
2022-10-09T18:00:56.783Z,48.50
2022-10-09T18:03:23.538Z,48.28
2022-10-09T18:05:51.334Z,42.67
2022-10-09T18:08:19.075Z,41.20
2022-10-09T18:10:46.338Z,39.30
2022-10-09T18:13:12.971Z,33.28
2022-10-09T18:15:41.350Z,32.80
2022-10-09T18:18:08.953Z,26.08
2022-10-09T18:20:37.513Z,24.02
2022-10-09T18:23:04.935Z,20.13
2022-10-09T18:25:31.638Z,19.70
2022-10-09T18:27:58.442Z,19.45
2022-10-09T18:30:25.457Z,20.70
2022-10-09T18:32:52.237Z,21.73
2022-10-09T18:35:19.242Z,19.98
2022-10-09T18:37:45.763Z,21.33
2022-10-09T18:40:14.062Z,24.85
2022-10-09T18:42:40.677Z,23.63
2022-10-09T18:45:09.158Z,19.73
2022-10-09T18:47:36.032Z,20.60
2022-10-09T18:50:07.515Z,24.63
2022-10-09T18:52:35.318Z,20.42
2022-10-09T18:55:02.911Z,21.52
2022-10-09T18:57:30.145Z,21.05
2022-10-09T18:59:58.232Z,18.55
2022-10-09T19:02:27.007Z,21.88
2022-10-09T19:04:54.711Z,18.95
2022-10-09T19:07:21.454Z,17.30
2022-10-09T19:09:56.312Z,14.55
2022-10-09T19:12:24.521Z,12.70
2022-10-09T19:14:51.402Z,11.55
2022-10-09T19:17:18.085Z,12.25
2022-10-09T19:19:44.650Z,10.93
2022-10-09T19:22:15.904Z,12.50
2022-10-09T19:24:44.281Z,10.48
2022-10-09T19:27:11.408Z,12.90
2022-10-09T19:29:38.109Z,10.55
2022-10-09T19:32:04.890Z,10.88
2022-10-09T19:34:31.800Z,12.55
2022-10-09T19:36:58.407Z,12.00
2022-10-09T19:39:25.084Z,15.55
2022-10-09T19:41:51.650Z,15.60
2022-10-09T19:44:18.566Z,13.95
2022-10-09T19:46:45.838Z,15.10
2022-10-09T19:49:12.474Z,14.35
2022-10-09T19:51:39.109Z,14.32
2022-10-09T19:54:07.210Z,13.90
2022-10-09T19:56:34.457Z,13.15
2022-10-09T19:59:03.080Z,12.73
2022-10-09T20:01:32.803Z,14.93
2022-10-09T20:04:01.666Z,13.73
2022-10-09T20:06:28.647Z,13.20
2022-10-09T20:08:56.487Z,15.65
2022-10-09T20:11:25.593Z,15.73
2022-10-09T20:13:55.954Z,15.82
2022-10-09T20:16:25.012Z,13.23
2022-10-09T20:18:51.703Z,11.73
2022-10-09T20:21:18.562Z,12.10
2022-10-09T20:23:45.340Z,12.55
2022-10-09T20:26:14.955Z,12.00
2022-10-09T20:28:41.793Z,12.05
2022-10-09T20:31:15.025Z,9.85
2022-10-09T20:33:42.662Z,8.75
2022-10-09T20:36:17.706Z,11.43
2022-10-09T20:38:44.332Z,10.57
2022-10-09T20:41:11.118Z,8.73
2022-10-09T20:43:38.162Z,12.35
2022-10-09T20:46:10.704Z,11.02
2022-10-09T20:48:37.281Z,9.57
2022-10-09T20:51:04.247Z,11.15
2022-10-09T20:53:31.436Z,12.63
2022-10-09T20:56:05.671Z,8.35
2022-10-09T20:58:32.514Z,10.77
2022-10-09T21:00:59.189Z,8.32
2022-10-09T21:03:25.876Z,12.88
2022-10-09T21:05:53.044Z,7.80
2022-10-09T21:08:19.598Z,8.88
2022-10-09T21:10:49.055Z,9.32
2022-10-09T21:15:47.602Z,8.07
2022-10-09T21:18:16.784Z,12.07
2022-10-09T21:20:45.103Z,10.85
2022-10-09T21:23:13.846Z,13.52
2022-10-09T21:25:47.750Z,12.87
2022-10-09T21:28:14.806Z,10.13
2022-10-09T21:30:41.964Z,11.50
2022-10-09T21:33:09.324Z,7.63
2022-10-09T21:35:43.513Z,10.32
2022-10-09T21:38:12.968Z,8.90
2022-10-09T21:43:07.507Z,9.43
2022-10-09T21:45:34.380Z,9.38
2022-10-09T21:48:00.993Z,9.13
2022-10-09T21:50:28.140Z,10.55
2022-10-09T21:52:54.672Z,8.38
2022-10-09T21:55:21.293Z,8.80
2022-10-09T21:57:48.104Z,8.77
2022-10-09T22:00:15.208Z,8.00
2022-10-09T22:02:41.854Z,9.38
2022-10-09T22:05:09.004Z,9.55
2022-10-09T22:07:35.968Z,7.22
2022-10-09T22:10:03.584Z,11.93
2022-10-09T22:12:30.155Z,8.90
2022-10-09T22:14:56.776Z,11.38
2022-10-09T22:17:23.417Z,10.25
2022-10-09T22:19:50.000Z,9.05
2022-10-09T22:22:16.761Z,8.52
2022-10-09T22:24:43.633Z,8.73
2022-10-09T22:27:10.210Z,11.10
2022-10-09T22:29:38.505Z,12.52
2022-10-09T22:32:06.063Z,10.02
2022-10-09T22:34:32.642Z,8.35
2022-10-09T22:36:59.199Z,9.32
2022-10-09T22:39:25.736Z,10.48
2022-10-09T22:41:52.392Z,7.60
2022-10-09T22:44:18.992Z,7.97
2022-10-09T22:46:45.841Z,10.05
2022-10-09T22:49:15.097Z,9.13
2022-10-09T22:51:41.928Z,9.52
2022-10-09T22:54:08.739Z,7.63
2022-10-09T22:56:38.869Z,11.02
2022-10-09T22:59:07.792Z,8.02
2022-10-09T23:01:43.468Z,6.47
2022-10-09T23:04:14.391Z,9.63
2022-10-09T23:06:41.755Z,11.52
2022-10-09T23:09:10.925Z,11.05
2022-10-09T23:11:37.537Z,10.15
2022-10-09T23:14:04.793Z,9.27
2022-10-09T23:16:31.499Z,7.43
2022-10-09T23:19:05.497Z,8.48
2022-10-09T23:21:33.487Z,9.43
2022-10-09T23:24:00.178Z,9.02
2022-10-09T23:26:30.970Z,7.93
2022-10-09T23:29:00.272Z,7.70
2022-10-09T23:31:27.756Z,7.60
2022-10-09T23:33:54.988Z,7.45
2022-10-09T23:36:23.858Z,6.45
2022-10-09T23:38:51.144Z,8.30
2022-10-09T23:41:20.352Z,7.78
2022-10-09T23:43:48.211Z,6.15
2022-10-09T23:46:21.087Z,10.57
2022-10-09T23:48:49.139Z,6.07
2022-10-09T23:51:16.703Z,8.00
2022-10-09T23:53:44.098Z,9.30
2022-10-09T23:56:25.564Z,8.43
2022-10-09T23:58:52.892Z,9.70
